sensor_id;sensor_type;location;lat;lon;timestamp;pressure;altitude;pressure_sealevel;temperature;humidity
71774;BME280;59607;52.130;5.430;2023-04-08T00:01:28;102384.38;;;8.27;100.00
71774;BME280;59607;52.130;5.430;2023-04-08T00:04:01;102389.94;;;8.22;100.00
71774;BME280;59607;52.130;5.430;2023-04-08T00:06:30;102385.63;;;8.21;100.00
71774;BME280;59607;52.130;5.430;2023-04-08T00:09:00;102384.72;;;8.22;100.00
71774;BME280;59607;52.130;5.430;2023-04-08T00:11:30;102388.13;;;8.23;100.00
71774;BME280;59607;52.130;5.430;2023-04-08T00:13:56;102392.84;;;8.18;100.00
71774;BME280;59607;52.130;5.430;2023-04-08T00:16:26;102391.31;;;8.15;100.00
71774;BME280;59607;52.130;5.430;2023-04-08T00:18:56;102393.81;;;8.17;100.00
71774;BME280;59607;52.130;5.430;2023-04-08T00:21:24;102392.69;;;8.08;100.00
71774;BME280;59607;52.130;5.430;2023-04-08T00:23:53;102391.09;;;8.05;100.00
71774;BME280;59607;52.130;5.430;2023-04-08T00:26:23;102386.50;;;8.09;100.00
71774;BME280;59607;52.130;5.430;2023-04-08T00:28:50;102386.63;;;8.07;100.00
71774;BME280;59607;52.130;5.430;2023-04-08T00:31:22;102387.66;;;8.05;100.00
71774;BME280;59607;52.130;5.430;2023-04-08T00:33:48;102391.22;;;8.03;100.00
71774;BME280;59607;52.130;5.430;2023-04-08T00:36:18;102389.34;;;7.93;100.00
71774;BME280;59607;52.130;5.430;2023-04-08T00:38:45;102399.91;;;7.91;100.00
71774;BME280;59607;52.130;5.430;2023-04-08T00:41:11;102399.91;;;7.91;100.00
71774;BME280;59607;52.130;5.430;2023-04-08T00:43:44;102405.47;;;7.86;100.00
71774;BME280;59607;52.130;5.430;2023-04-08T00:46:13;102396.78;;;7.86;100.00
71774;BME280;59607;52.130;5.430;2023-04-08T00:48:39;102407.44;;;7.83;100.00
71774;BME280;59607;52.130;5.430;2023-04-08T00:51:12;102407.00;;;7.89;100.00
71774;BME280;59607;52.130;5.430;2023-04-08T00:53:38;102409.72;;;7.87;100.00
71774;BME280;59607;52.130;5.430;2023-04-08T00:56:05;102404.72;;;7.84;100.00
71774;BME280;59607;52.130;5.430;2023-04-08T00:58:31;102402.97;;;7.85;100.00
71774;BME280;59607;52.130;5.430;2023-04-08T01:01:08;102412.03;;;7.92;100.00
71774;BME280;59607;52.130;5.430;2023-04-08T01:04:02;102410.38;;;7.91;100.00
71774;BME280;59607;52.130;5.430;2023-04-08T01:06:48;102410.56;;;7.88;100.00
71774;BME280;59607;52.130;5.430;2023-04-08T01:09:27;102412.66;;;7.83;100.00
71774;BME280;59607;52.130;5.430;2023-04-08T01:11:56;102415.28;;;7.57;100.00
71774;BME280;59607;52.130;5.430;2023-04-08T01:14:27;102413.59;;;7.43;100.00
71774;BME280;59607;52.130;5.430;2023-04-08T01:16:54;102419.13;;;7.38;100.00
71774;BME280;59607;52.130;5.430;2023-04-08T01:19:34;102421.63;;;7.39;100.00
71774;BME280;59607;52.130;5.430;2023-04-08T01:22:37;102418.28;;;7.37;100.00
71774;BME280;59607;52.130;5.430;2023-04-08T01:25:22;102411.91;;;7.41;100.00
71774;BME280;59607;52.130;5.430;2023-04-08T01:27:53;102419.63;;;7.43;100.00
71774;BME280;59607;52.130;5.430;2023-04-08T01:30:27;102413.69;;;7.41;100.00
71774;BME280;59607;52.130;5.430;2023-04-08T01:32:56;102418.41;;;7.49;100.00
71774;BME280;59607;52.130;5.430;2023-04-08T01:35:24;102407.41;;;7.44;100.00
71774;BME280;59607;52.130;5.430;2023-04-08T01:37:59;102410.66;;;7.47;100.00
71774;BME280;59607;52.130;5.430;2023-04-08T01:40:26;102414.00;;;7.49;100.00
71774;BME280;59607;52.130;5.430;2023-04-08T01:42:54;102419.22;;;7.49;100.00
71774;BME280;59607;52.130;5.430;2023-04-08T01:45:24;102426.66;;;7.43;100.00
71774;BME280;59607;52.130;5.430;2023-04-08T01:47:51;102422.13;;;7.32;100.00
71774;BME280;59607;52.130;5.430;2023-04-08T01:50:22;102426.84;;;7.39;100.00
71774;BME280;59607;52.130;5.430;2023-04-08T01:52:53;102428.09;;;7.47;100.00
71774;BME280;59607;52.130;5.430;2023-04-08T01:55:30;102432.06;;;7.39;100.00
71774;BME280;59607;52.130;5.430;2023-04-08T01:57:59;102433.63;;;7.42;100.00
71774;BME280;59607;52.130;5.430;2023-04-08T02:00:33;102431.34;;;7.37;100.00
71774;BME280;59607;52.130;5.430;2023-04-08T02:03:02;102429.03;;;7.33;100.00
71774;BME280;59607;52.130;5.430;2023-04-08T02:05:38;102427.34;;;7.32;100.00
71774;BME280;59607;52.130;5.430;2023-04-08T02:08:08;102427.22;;;7.33;100.00
71774;BME280;59607;52.130;5.430;2023-04-08T02:10:40;102418.38;;;7.36;100.00
71774;BME280;59607;52.130;5.430;2023-04-08T02:13:07;102419.72;;;7.41;100.00
71774;BME280;59607;52.130;5.430;2023-04-08T02:16:14;102412.97;;;7.39;100.00
71774;BME280;59607;52.130;5.430;2023-04-08T02:18:49;102421.19;;;7.33;100.00
71774;BME280;59607;52.130;5.430;2023-04-08T02:21:32;102421.59;;;7.26;100.00
71774;BME280;59607;52.130;5.430;2023-04-08T02:24:20;102421.81;;;7.23;100.00
71774;BME280;59607;52.130;5.430;2023-04-08T02:26:48;102432.00;;;7.13;100.00
71774;BME280;59607;52.130;5.430;2023-04-08T02:29:20;102424.88;;;7.02;100.00
71774;BME280;59607;52.130;5.430;2023-04-08T02:31:50;102434.81;;;7.10;100.00
71774;BME280;59607;52.130;5.430;2023-04-08T02:34:19;102439.41;;;7.07;100.00
71774;BME280;59607;52.130;5.430;2023-04-08T02:36:52;102430.72;;;7.06;100.00
71774;BME280;59607;52.130;5.430;2023-04-08T02:39:19;102431.66;;;7.05;100.00
71774;BME280;59607;52.130;5.430;2023-04-08T02:41:45;102426.25;;;7.08;100.00
71774;BME280;59607;52.130;5.430;2023-04-08T02:44:17;102433.44;;;7.04;100.00
71774;BME280;59607;52.130;5.430;2023-04-08T02:46:43;102437.09;;;7.02;100.00
71774;BME280;59607;52.130;5.430;2023-04-08T02:49:10;102431.44;;;6.95;100.00
71774;BME280;59607;52.130;5.430;2023-04-08T02:51:41;102438.72;;;6.90;100.00
71774;BME280;59607;52.130;5.430;2023-04-08T02:54:07;102435.59;;;6.98;100.00
71774;BME280;59607;52.130;5.430;2023-04-08T02:56:36;102442.31;;;7.02;100.00
71774;BME280;59607;52.130;5.430;2023-04-08T02:59:05;102445.13;;;6.99;100.00
71774;BME280;59607;52.130;5.430;2023-04-08T03:01:32;102450.13;;;7.02;100.00
71774;BME280;59607;52.130;5.430;2023-04-08T03:03:58;102447.72;;;6.99;100.00
71774;BME280;59607;52.130;5.430;2023-04-08T03:06:25;102454.81;;;6.97;100.00
71774;BME280;59607;52.130;5.430;2023-04-08T03:09:00;102455.59;;;6.84;100.00
71774;BME280;59607;52.130;5.430;2023-04-08T03:11:32;102454.19;;;6.78;100.00
71774;BME280;59607;52.130;5.430;2023-04-08T03:13:59;102454.00;;;6.82;100.00
71774;BME280;59607;52.130;5.430;2023-04-08T03:16:26;102457.56;;;6.81;100.00
71774;BME280;59607;52.130;5.430;2023-04-08T03:18:58;102450.56;;;6.81;100.00
71774;BME280;59607;52.130;5.430;2023-04-08T03:21:25;102453.38;;;6.78;100.00
71774;BME280;59607;52.130;5.430;2023-04-08T03:23:54;102452.34;;;6.81;100.00
71774;BME280;59607;52.130;5.430;2023-04-08T03:26:21;102448.88;;;6.80;100.00
71774;BME280;59607;52.130;5.430;2023-04-08T03:28:47;102453.44;;;6.76;100.00
71774;BME280;59607;52.130;5.430;2023-04-08T03:31:14;102457.28;;;6.71;100.00
71774;BME280;59607;52.130;5.430;2023-04-08T03:33:45;102456.00;;;6.63;100.00
71774;BME280;59607;52.130;5.430;2023-04-08T03:36:11;102453.47;;;6.62;100.00
71774;BME280;59607;52.130;5.430;2023-04-08T03:38:41;102462.25;;;6.61;100.00
71774;BME280;59607;52.130;5.430;2023-04-08T03:41:19;102454.44;;;6.61;100.00
71774;BME280;59607;52.130;5.430;2023-04-08T03:43:51;102451.16;;;6.57;100.00
71774;BME280;59607;52.130;5.430;2023-04-08T03:46:17;102460.97;;;6.53;100.00
71774;BME280;59607;52.130;5.430;2023-04-08T03:48:44;102460.13;;;6.53;100.00
71774;BME280;59607;52.130;5.430;2023-04-08T03:51:24;102454.72;;;6.56;100.00
71774;BME280;59607;52.130;5.430;2023-04-08T03:54:06;102462.53;;;6.56;100.00
71774;BME280;59607;52.130;5.430;2023-04-08T03:56:38;102460.50;;;6.47;100.00
71774;BME280;59607;52.130;5.430;2023-04-08T03:59:04;102461.00;;;6.39;100.00
71774;BME280;59607;52.130;5.430;2023-04-08T04:01:31;102470.84;;;6.34;100.00
71774;BME280;59607;52.130;5.430;2023-04-08T04:04:13;102479.06;;;6.27;100.00
71774;BME280;59607;52.130;5.430;2023-04-08T04:06:40;102475.50;;;6.28;100.00
71774;BME280;59607;52.130;5.430;2023-04-08T04:09:09;102482.56;;;6.26;100.00
71774;BME280;59607;52.130;5.430;2023-04-08T04:11:36;102485.34;;;6.23;100.00
71774;BME280;59607;52.130;5.430;2023-04-08T04:14:10;102478.94;;;6.14;100.00
71774;BME280;59607;52.130;5.430;2023-04-08T04:16:36;102493.91;;;6.11;100.00
71774;BME280;59607;52.130;5.430;2023-04-08T04:19:05;102488.19;;;6.04;100.00
71774;BME280;59607;52.130;5.430;2023-04-08T04:21:33;102496.03;;;6.04;100.00
71774;BME280;59607;52.130;5.430;2023-04-08T04:23:59;102497.16;;;6.00;100.00
71774;BME280;59607;52.130;5.430;2023-04-08T04:26:25;102502.06;;;5.90;100.00
71774;BME280;59607;52.130;5.430;2023-04-08T04:28:52;102505.31;;;5.93;100.00
71774;BME280;59607;52.130;5.430;2023-04-08T04:31:23;102505.97;;;5.97;100.00
71774;BME280;59607;52.130;5.430;2023-04-08T04:33:56;102506.91;;;5.96;100.00
71774;BME280;59607;52.130;5.430;2023-04-08T04:36:25;102509.31;;;5.99;100.00
71774;BME280;59607;52.130;5.430;2023-04-08T04:39:10;102513.69;;;5.99;100.00
71774;BME280;59607;52.130;5.430;2023-04-08T04:41:44;102517.59;;;5.91;100.00
71774;BME280;59607;52.130;5.430;2023-04-08T04:44:12;102520.72;;;5.82;100.00
71774;BME280;59607;52.130;5.430;2023-04-08T04:46:47;102524.44;;;5.78;100.00
71774;BME280;59607;52.130;5.430;2023-04-08T04:49:13;102527.03;;;5.78;100.00
71774;BME280;59607;52.130;5.430;2023-04-08T04:51:42;102527.47;;;5.70;100.00
71774;BME280;59607;52.130;5.430;2023-04-08T04:54:20;102526.91;;;5.65;100.00
71774;BME280;59607;52.130;5.430;2023-04-08T04:56:47;102535.56;;;5.65;100.00
71774;BME280;59607;52.130;5.430;2023-04-08T04:59:13;102536.50;;;5.64;100.00
71774;BME280;59607;52.130;5.430;2023-04-08T05:01:40;102540.69;;;5.67;100.00
71774;BME280;59607;52.130;5.430;2023-04-08T05:04:06;102542.88;;;5.59;100.00
71774;BME280;59607;52.130;5.430;2023-04-08T05:06:39;102544.47;;;5.45;100.00
71774;BME280;59607;52.130;5.430;2023-04-08T05:09:05;102544.00;;;5.38;100.00
71774;BME280;59607;52.130;5.430;2023-04-08T05:11:33;102550.19;;;5.36;100.00
71774;BME280;59607;52.130;5.430;2023-04-08T05:14:06;102550.03;;;5.39;100.00
71774;BME280;59607;52.130;5.430;2023-04-08T05:16:39;102553.56;;;5.38;100.00
71774;BME280;59607;52.130;5.430;2023-04-08T05:19:10;102560.25;;;5.42;100.00
71774;BME280;59607;52.130;5.430;2023-04-08T05:21:38;102553.56;;;5.38;100.00
71774;BME280;59607;52.130;5.430;2023-04-08T05:24:10;102558.84;;;5.36;100.00
71774;BME280;59607;52.130;5.430;2023-04-08T05:26:38;102569.53;;;5.31;100.00
71774;BME280;59607;52.130;5.430;2023-04-08T05:29:07;102569.09;;;5.39;100.00
71774;BME280;59607;52.130;5.430;2023-04-08T05:31:40;102563.53;;;5.46;100.00
71774;BME280;59607;52.130;5.430;2023-04-08T05:34:09;102560.78;;;5.49;100.00
71774;BME280;59607;52.130;5.430;2023-04-08T05:36:39;102566.22;;;5.91;100.00
71774;BME280;59607;52.130;5.430;2023-04-08T05:39:11;102554.31;;;6.90;100.00
71774;BME280;59607;52.130;5.430;2023-04-08T05:41:38;102557.34;;;7.67;100.00
71774;BME280;59607;52.130;5.430;2023-04-08T05:44:04;102555.13;;;8.40;100.00
71774;BME280;59607;52.130;5.430;2023-04-08T05:46:37;102563.38;;;8.73;100.00
71774;BME280;59607;52.130;5.430;2023-04-08T05:49:06;102561.34;;;9.28;93.14
71774;BME280;59607;52.130;5.430;2023-04-08T05:51:33;102561.34;;;9.52;90.93
71774;BME280;59607;52.130;5.430;2023-04-08T05:54:25;102562.63;;;9.82;86.59
71774;BME280;59607;52.130;5.430;2023-04-08T05:56:51;102562.06;;;9.90;83.82
71774;BME280;59607;52.130;5.430;2023-04-08T05:59:21;102566.75;;;10.09;82.20
71774;BME280;59607;52.130;5.430;2023-04-08T06:01:50;102560.34;;;10.25;79.70
71774;BME280;59607;52.130;5.430;2023-04-08T06:04:17;102567.75;;;10.43;78.26
71774;BME280;59607;52.130;5.430;2023-04-08T06:06:46;102568.09;;;10.84;76.66
71774;BME280;59607;52.130;5.430;2023-04-08T06:09:14;102568.69;;;11.43;73.31
71774;BME280;59607;52.130;5.430;2023-04-08T06:11:40;102558.59;;;11.48;71.34
71774;BME280;59607;52.130;5.430;2023-04-08T06:14:06;102567.09;;;11.52;69.98
71774;BME280;59607;52.130;5.430;2023-04-08T06:16:38;102565.13;;;10.66;69.86
71774;BME280;59607;52.130;5.430;2023-04-08T06:19:04;102577.16;;;9.50;74.47
71774;BME280;59607;52.130;5.430;2023-04-08T06:21:31;102577.66;;;8.56;78.52
71774;BME280;59607;52.130;5.430;2023-04-08T06:24:03;102578.69;;;7.87;83.57
71774;BME280;59607;52.130;5.430;2023-04-08T06:26:30;102585.09;;;7.55;86.54
71774;BME280;59607;52.130;5.430;2023-04-08T06:28:57;102591.88;;;7.30;88.44
71774;BME280;59607;52.130;5.430;2023-04-08T06:31:23;102603.09;;;7.18;90.11
71774;BME280;59607;52.130;5.430;2023-04-08T06:33:52;102608.34;;;6.88;91.90
71774;BME280;59607;52.130;5.430;2023-04-08T06:36:23;102606.00;;;6.98;93.61
71774;BME280;59607;52.130;5.430;2023-04-08T06:38:51;102611.13;;;7.00;94.45
71774;BME280;59607;52.130;5.430;2023-04-08T06:41:18;102624.00;;;6.88;94.71
71774;BME280;59607;52.130;5.430;2023-04-08T06:43:44;102625.66;;;6.75;95.28
71774;BME280;59607;52.130;5.430;2023-04-08T06:46:10;102620.72;;;6.70;96.41
71774;BME280;59607;52.130;5.430;2023-04-08T06:48:37;102621.69;;;6.69;97.60
71774;BME280;59607;52.130;5.430;2023-04-08T06:51:04;102625.66;;;6.75;97.43
71774;BME280;59607;52.130;5.430;2023-04-08T06:53:40;102633.16;;;6.81;99.28
71774;BME280;59607;52.130;5.430;2023-04-08T06:56:06;102621.78;;;6.82;97.38
71774;BME280;59607;52.130;5.430;2023-04-08T06:58:33;102626.22;;;6.95;96.02
71774;BME280;59607;52.130;5.430;2023-04-08T07:01:05;102635.56;;;6.84;96.22
71774;BME280;59607;52.130;5.430;2023-04-08T07:03:32;102637.41;;;6.97;96.66
71774;BME280;59607;52.130;5.430;2023-04-08T07:06:02;102643.28;;;7.00;96.60
71774;BME280;59607;52.130;5.430;2023-04-08T07:08:31;102645.44;;;7.08;97.00
71774;BME280;59607;52.130;5.430;2023-04-08T07:11:01;102640.38;;;7.20;93.70
71774;BME280;59607;52.130;5.430;2023-04-08T07:13:31;102648.47;;;7.30;93.14
71774;BME280;59607;52.130;5.430;2023-04-08T07:15:57;102655.19;;;7.19;92.75
71774;BME280;59607;52.130;5.430;2023-04-08T07:18:25;102656.03;;;7.20;92.94
71774;BME280;59607;52.130;5.430;2023-04-08T07:20:55;102657.41;;;7.25;92.84
71774;BME280;59607;52.130;5.430;2023-04-08T07:23:21;102658.63;;;7.34;93.66
71774;BME280;59607;52.130;5.430;2023-04-08T07:25:49;102673.25;;;7.37;91.65
71774;BME280;59607;52.130;5.430;2023-04-08T07:28:15;102669.47;;;7.28;91.53
71774;BME280;59607;52.130;5.430;2023-04-08T07:30:46;102666.09;;;7.26;89.68
71774;BME280;59607;52.130;5.430;2023-04-08T07:33:12;102672.59;;;7.33;90.49
71774;BME280;59607;52.130;5.430;2023-04-08T07:35:43;102680.31;;;7.49;90.06
71774;BME280;59607;52.130;5.430;2023-04-08T07:38:10;102677.25;;;7.57;89.16
71774;BME280;59607;52.130;5.430;2023-04-08T07:40:46;102681.78;;;7.68;89.95
71774;BME280;59607;52.130;5.430;2023-04-08T07:43:12;102675.34;;;7.59;87.88
71774;BME280;59607;52.130;5.430;2023-04-08T07:45:38;102674.41;;;7.75;87.81
71774;BME280;59607;52.130;5.430;2023-04-08T07:48:10;102674.09;;;7.80;87.25
71774;BME280;59607;52.130;5.430;2023-04-08T07:50:36;102679.56;;;7.89;86.85
71774;BME280;59607;52.130;5.430;2023-04-08T07:53:24;102673.09;;;7.95;87.82
71774;BME280;59607;52.130;5.430;2023-04-08T07:55:55;102675.25;;;8.16;86.55
71774;BME280;59607;52.130;5.430;2023-04-08T07:58:22;102673.53;;;8.02;85.94
71774;BME280;59607;52.130;5.430;2023-04-08T08:00:51;102678.81;;;8.15;84.91
71774;BME280;59607;52.130;5.430;2023-04-08T08:03:21;102680.59;;;8.27;83.53
71774;BME280;59607;52.130;5.430;2023-04-08T08:05:49;102670.16;;;8.40;81.83
71774;BME280;59607;52.130;5.430;2023-04-08T08:08:18;102682.22;;;8.43;82.94
71774;BME280;59607;52.130;5.430;2023-04-08T08:10:47;102681.22;;;8.72;84.16
71774;BME280;59607;52.130;5.430;2023-04-08T08:13:14;102683.63;;;8.62;84.28
71774;BME280;59607;52.130;5.430;2023-04-08T08:15:42;102680.47;;;8.70;85.64
71774;BME280;59607;52.130;5.430;2023-04-08T08:18:17;102678.50;;;8.86;82.28
71774;BME280;59607;52.130;5.430;2023-04-08T08:20:49;102682.97;;;8.97;81.90
71774;BME280;59607;52.130;5.430;2023-04-08T08:23:15;102672.50;;;8.97;81.96
71774;BME280;59607;52.130;5.430;2023-04-08T08:25:45;102672.59;;;9.09;82.61
71774;BME280;59607;52.130;5.430;2023-04-08T08:28:14;102678.03;;;9.19;83.29
71774;BME280;59607;52.130;5.430;2023-04-08T08:30:41;102687.84;;;9.28;82.05
71774;BME280;59607;52.130;5.430;2023-04-08T08:33:18;102688.28;;;9.22;80.21
71774;BME280;59607;52.130;5.430;2023-04-08T08:35:44;102690.38;;;9.30;81.00
71774;BME280;59607;52.130;5.430;2023-04-08T08:38:14;102683.16;;;9.20;83.28
71774;BME280;59607;52.130;5.430;2023-04-08T08:40:46;102679.66;;;9.33;82.52
71774;BME280;59607;52.130;5.430;2023-04-08T08:43:12;102688.75;;;9.53;80.67
71774;BME280;59607;52.130;5.430;2023-04-08T08:45:40;102696.94;;;9.48;79.27
71774;BME280;59607;52.130;5.430;2023-04-08T08:48:10;102698.72;;;9.48;78.60
71774;BME280;59607;52.130;5.430;2023-04-08T08:50:37;102689.47;;;9.55;77.98
71774;BME280;59607;52.130;5.430;2023-04-08T08:53:08;102693.09;;;9.66;77.69
71774;BME280;59607;52.130;5.430;2023-04-08T08:55:35;102695.72;;;9.90;77.68
71774;BME280;59607;52.130;5.430;2023-04-08T08:58:21;102698.78;;;10.08;77.08
71774;BME280;59607;52.130;5.430;2023-04-08T09:00:54;102703.00;;;10.22;76.39
71774;BME280;59607;52.130;5.430;2023-04-08T09:05:59;102697.16;;;10.55;75.13
71774;BME280;59607;52.130;5.430;2023-04-08T09:08:36;102703.72;;;10.49;76.31
71774;BME280;59607;52.130;5.430;2023-04-08T09:11:14;102704.31;;;10.64;71.81
71774;BME280;59607;52.130;5.430;2023-04-08T09:13:45;102705.06;;;10.66;72.10
71774;BME280;59607;52.130;5.430;2023-04-08T09:16:16;102708.03;;;10.61;73.18
71774;BME280;59607;52.130;5.430;2023-04-08T09:18:54;102701.34;;;10.57;72.98
71774;BME280;59607;52.130;5.430;2023-04-08T09:21:31;102707.69;;;10.66;72.70
71774;BME280;59607;52.130;5.430;2023-04-08T09:23:57;102708.41;;;10.68;73.81
71774;BME280;59607;52.130;5.430;2023-04-08T09:26:26;102707.69;;;10.78;74.05
71774;BME280;59607;52.130;5.430;2023-04-08T09:29:09;102709.38;;;11.02;72.93
71774;BME280;59607;52.130;5.430;2023-04-08T09:31:57;102713.09;;;10.99;72.08
71774;BME280;59607;52.130;5.430;2023-04-08T09:34:28;102715.09;;;10.95;71.10
71774;BME280;59607;52.130;5.430;2023-04-08T09:36:59;102716.91;;;11.06;72.37
71774;BME280;59607;52.130;5.430;2023-04-08T09:39:26;102718.34;;;11.22;69.08
71774;BME280;59607;52.130;5.430;2023-04-08T09:41:57;102718.47;;;11.20;69.62
71774;BME280;59607;52.130;5.430;2023-04-08T09:44:27;102717.00;;;11.39;68.62
71774;BME280;59607;52.130;5.430;2023-04-08T09:47:19;102716.88;;;11.52;69.22
71774;BME280;59607;52.130;5.430;2023-04-08T09:50:11;102710.72;;;11.75;68.96
71774;BME280;59607;52.130;5.430;2023-04-08T09:52:48;102705.72;;;11.71;67.83
71774;BME280;59607;52.130;5.430;2023-04-08T09:55:25;102717.06;;;11.72;67.48
71774;BME280;59607;52.130;5.430;2023-04-08T09:58:03;102711.94;;;11.70;66.60
71774;BME280;59607;52.130;5.430;2023-04-08T10:00:41;102708.22;;;11.73;65.06
71774;BME280;59607;52.130;5.430;2023-04-08T10:05:54;102715.66;;;12.01;65.03
71774;BME280;59607;52.130;5.430;2023-04-08T10:08:31;102714.72;;;12.02;65.33
71774;BME280;59607;52.130;5.430;2023-04-08T10:10:58;102704.75;;;12.05;64.33
71774;BME280;59607;52.130;5.430;2023-04-08T10:13:26;102705.97;;;12.13;64.91
71774;BME280;59607;52.130;5.430;2023-04-08T10:16:20;102695.53;;;12.23;64.42
71774;BME280;59607;52.130;5.430;2023-04-08T10:18:53;102692.63;;;12.26;62.77
71774;BME280;59607;52.130;5.430;2023-04-08T10:21:38;102697.84;;;12.37;63.99
71774;BME280;59607;52.130;5.430;2023-04-08T10:24:07;102701.03;;;12.41;62.87
71774;BME280;59607;52.130;5.430;2023-04-08T10:26:37;102697.56;;;12.40;61.15
71774;BME280;59607;52.130;5.430;2023-04-08T10:31:49;102689.97;;;13.00;59.63
71774;BME280;59607;52.130;5.430;2023-04-08T10:34:21;102691.59;;;12.91;58.65
71774;BME280;59607;52.130;5.430;2023-04-08T10:36:52;102698.66;;;13.22;60.01
71774;BME280;59607;52.130;5.430;2023-04-08T10:39:18;102698.78;;;13.20;59.28
71774;BME280;59607;52.130;5.430;2023-04-08T10:41:54;102698.94;;;13.38;61.02
71774;BME280;59607;52.130;5.430;2023-04-08T10:44:23;102701.44;;;13.30;59.07
71774;BME280;59607;52.130;5.430;2023-04-08T10:46:53;102698.47;;;13.13;58.70
71774;BME280;59607;52.130;5.430;2023-04-08T10:49:20;102698.75;;;13.10;60.68
71774;BME280;59607;52.130;5.430;2023-04-08T10:51:50;102699.06;;;13.27;59.60
71774;BME280;59607;52.130;5.430;2023-04-08T10:54:17;102696.69;;;13.24;59.71
71774;BME280;59607;52.130;5.430;2023-04-08T10:56:46;102699.47;;;13.22;60.25
71774;BME280;59607;52.130;5.430;2023-04-08T10:59:20;102691.41;;;13.14;60.18
71774;BME280;59607;52.130;5.430;2023-04-08T11:01:53;102682.00;;;13.21;58.44
71774;BME280;59607;52.130;5.430;2023-04-08T11:04:24;102684.13;;;13.47;59.28
71774;BME280;59607;52.130;5.430;2023-04-08T11:06:51;102686.69;;;13.68;57.17
71774;BME280;59607;52.130;5.430;2023-04-08T11:09:26;102676.00;;;13.60;57.94
71774;BME280;59607;52.130;5.430;2023-04-08T11:11:52;102677.50;;;13.63;54.96
71774;BME280;59607;52.130;5.430;2023-04-08T11:14:19;102685.59;;;13.81;54.12
71774;BME280;59607;52.130;5.430;2023-04-08T11:16:50;102683.78;;;13.91;55.81
71774;BME280;59607;52.130;5.430;2023-04-08T11:19:17;102681.28;;;14.00;54.94
71774;BME280;59607;52.130;5.430;2023-04-08T11:21:53;102686.13;;;14.14;54.47
71774;BME280;59607;52.130;5.430;2023-04-08T11:24:20;102670.03;;;14.07;53.07
71774;BME280;59607;52.130;5.430;2023-04-08T11:26:57;102678.22;;;14.14;52.93
71774;BME280;59607;52.130;5.430;2023-04-08T11:29:24;102681.66;;;14.35;51.35
71774;BME280;59607;52.130;5.430;2023-04-08T11:31:54;102684.81;;;14.48;49.46
71774;BME280;59607;52.130;5.430;2023-04-08T11:34:28;102672.47;;;14.39;49.02
71774;BME280;59607;52.130;5.430;2023-04-08T11:36:57;102678.75;;;14.28;47.91
71774;BME280;59607;52.130;5.430;2023-04-08T11:39:26;102683.47;;;14.24;48.67
71774;BME280;59607;52.130;5.430;2023-04-08T11:41:53;102683.84;;;14.39;48.68
71774;BME280;59607;52.130;5.430;2023-04-08T11:44:31;102689.44;;;14.36;48.94
71774;BME280;59607;52.130;5.430;2023-04-08T11:46:58;102682.66;;;14.04;49.31
71774;BME280;59607;52.130;5.430;2023-04-08T11:49:45;102688.22;;;14.01;49.53
71774;BME280;59607;52.130;5.430;2023-04-08T11:52:14;102690.84;;;13.91;48.43
71774;BME280;59607;52.130;5.430;2023-04-08T11:54:42;102684.59;;;14.12;49.01
71774;BME280;59607;52.130;5.430;2023-04-08T11:57:28;102684.44;;;14.23;50.35
71774;BME280;59607;52.130;5.430;2023-04-08T12:00:00;102691.00;;;14.09;51.12
71774;BME280;59607;52.130;5.430;2023-04-08T12:02:27;102691.78;;;14.29;50.68
71774;BME280;59607;52.130;5.430;2023-04-08T12:04:59;102691.38;;;14.24;49.71
71774;BME280;59607;52.130;5.430;2023-04-08T12:07:27;102678.03;;;14.26;44.57
71774;BME280;59607;52.130;5.430;2023-04-08T12:10:00;102683.25;;;14.55;44.74
71774;BME280;59607;52.130;5.430;2023-04-08T12:12:26;102677.66;;;14.68;45.04
71774;BME280;59607;52.130;5.430;2023-04-08T12:14:53;102679.31;;;15.08;43.26
71774;BME280;59607;52.130;5.430;2023-04-08T12:17:26;102678.50;;;15.07;42.78
71774;BME280;59607;52.130;5.430;2023-04-08T12:19:52;102679.47;;;15.06;42.98
71774;BME280;59607;52.130;5.430;2023-04-08T12:22:19;102683.81;;;14.97;42.48
71774;BME280;59607;52.130;5.430;2023-04-08T12:24:50;102681.41;;;14.86;41.53
71774;BME280;59607;52.130;5.430;2023-04-08T12:27:17;102687.34;;;14.88;38.50
71774;BME280;59607;52.130;5.430;2023-04-08T12:29:48;102683.59;;;14.90;41.34
71774;BME280;59607;52.130;5.430;2023-04-08T12:32:18;102683.03;;;14.87;40.60
71774;BME280;59607;52.130;5.430;2023-04-08T12:34:45;102678.78;;;15.04;39.17
71774;BME280;59607;52.130;5.430;2023-04-08T12:37:17;102684.69;;;14.88;39.36
71774;BME280;59607;52.130;5.430;2023-04-08T12:39:43;102677.91;;;14.85;39.88
71774;BME280;59607;52.130;5.430;2023-04-08T12:42:14;102674.03;;;14.69;39.39
71774;BME280;59607;52.130;5.430;2023-04-08T12:44:40;102677.22;;;14.73;40.83
71774;BME280;59607;52.130;5.430;2023-04-08T12:47:07;102675.41;;;14.84;39.79
71774;BME280;59607;52.130;5.430;2023-04-08T12:49:36;102672.78;;;14.74;40.37
71774;BME280;59607;52.130;5.430;2023-04-08T12:52:26;102668.75;;;14.69;40.33
71774;BME280;59607;52.130;5.430;2023-04-08T12:54:52;102669.75;;;14.59;39.91
71774;BME280;59607;52.130;5.430;2023-04-08T12:57:29;102672.63;;;14.75;39.18
71774;BME280;59607;52.130;5.430;2023-04-08T12:59:57;102677.19;;;14.93;39.79
71774;BME280;59607;52.130;5.430;2023-04-08T13:02:59;102680.09;;;14.90;42.14
71774;BME280;59607;52.130;5.430;2023-04-08T13:05:41;102682.75;;;14.90;41.29
71774;BME280;59607;52.130;5.430;2023-04-08T13:08:10;102679.41;;;14.88;42.44
71774;BME280;59607;52.130;5.430;2023-04-08T13:10:41;102680.38;;;14.97;42.94
71774;BME280;59607;52.130;5.430;2023-04-08T13:13:16;102685.44;;;14.80;44.24
71774;BME280;59607;52.130;5.430;2023-04-08T13:15:42;102689.94;;;14.60;45.62
71774;BME280;59607;52.130;5.430;2023-04-08T13:18:12;102681.78;;;14.33;48.37
71774;BME280;59607;52.130;5.430;2023-04-08T13:21:04;102684.97;;;14.47;48.23